createdAt,value
2018-11-14T00:00:51.423Z,5.60
2018-11-14T00:03:22.144Z,6.03
2018-11-14T00:05:53.606Z,6.50
2018-11-14T00:08:23.035Z,5.70
2018-11-14T00:10:52.969Z,6.30
2018-11-14T00:13:22.678Z,6.67
2018-11-14T00:15:52.564Z,5.70
2018-11-14T00:18:21.169Z,6.30
2018-11-14T00:20:51.188Z,5.97
2018-11-14T00:23:22.242Z,5.93
2018-11-14T00:25:51.690Z,6.43
2018-11-14T00:28:23.748Z,5.73
2018-11-14T00:30:53.626Z,5.90
2018-11-14T00:33:22.162Z,6.47
2018-11-14T00:35:53.708Z,6.73
2018-11-14T00:38:22.810Z,6.40
2018-11-14T00:40:55.324Z,6.33
2018-11-14T00:43:25.054Z,6.13
2018-11-14T00:45:56.154Z,5.67
2018-11-14T00:48:30.209Z,5.77
2018-11-14T00:51:02.474Z,6.53
2018-11-14T00:53:32.250Z,6.70
2018-11-14T00:56:01.956Z,5.70
2018-11-14T00:58:30.523Z,6.13
2018-11-14T01:01:01.108Z,5.80
2018-11-14T01:03:32.018Z,6.40
2018-11-14T01:06:01.759Z,6.20
2018-11-14T01:08:31.280Z,6.13
2018-11-14T01:11:02.408Z,5.70
2018-11-14T01:13:32.224Z,5.77
2018-11-14T01:16:00.766Z,5.40
2018-11-14T01:18:32.574Z,5.87
2018-11-14T01:21:02.161Z,5.83
2018-11-14T01:23:30.746Z,6.70
2018-11-14T01:26:01.980Z,6.07
2018-11-14T01:28:34.257Z,6.23
2018-11-14T01:31:07.073Z,6.40
2018-11-14T01:33:38.722Z,6.07
2018-11-14T01:36:09.423Z,6.30
2018-11-14T01:38:41.079Z,6.77
2018-11-14T01:41:09.777Z,6.13
2018-11-14T01:43:42.981Z,6.73
2018-11-14T01:46:11.499Z,6.00
2018-11-14T01:48:40.061Z,6.03
2018-11-14T01:51:11.863Z,5.73
2018-11-14T01:53:41.483Z,6.57
2018-11-14T01:56:09.949Z,6.97
2018-11-14T01:58:41.361Z,6.87
2018-11-14T02:01:10.190Z,6.97
2018-11-14T02:03:41.213Z,7.33
2018-11-14T02:06:13.177Z,7.30
2018-11-14T02:08:43.460Z,7.20
2018-11-14T02:11:12.321Z,6.70
2018-11-14T02:13:40.846Z,7.33
2018-11-14T02:16:09.375Z,7.17
2018-11-14T02:18:37.846Z,7.07
2018-11-14T02:21:06.375Z,7.77
2018-11-14T02:23:34.877Z,7.47
2018-11-14T02:26:04.553Z,7.87
2018-11-14T02:28:35.165Z,8.10
2018-11-14T02:31:04.767Z,7.40
2018-11-14T02:33:34.568Z,8.17
2018-11-14T02:36:03.537Z,8.03
2018-11-14T02:38:32.135Z,7.87
2018-11-14T02:41:00.615Z,7.80
2018-11-14T02:43:29.115Z,8.53
2018-11-14T02:45:57.566Z,8.83
2018-11-14T02:48:26.129Z,7.47
2018-11-14T02:51:05.818Z,8.17
2018-11-14T02:53:34.316Z,7.97
2018-11-14T02:56:07.884Z,8.10
2018-11-14T02:58:37.639Z,8.40
2018-11-14T03:01:06.791Z,8.67
2018-11-14T03:03:36.478Z,9.33
2018-11-14T03:06:07.844Z,9.33
2018-11-14T03:08:36.967Z,8.83
2018-11-14T03:11:07.256Z,8.73
2018-11-14T03:13:35.729Z,9.27
2018-11-14T03:16:04.970Z,9.27
2018-11-14T03:18:36.166Z,9.77
2018-11-14T03:21:05.796Z,8.87
2018-11-14T03:23:34.261Z,9.50
2018-11-14T03:26:02.758Z,9.23
2018-11-14T03:28:31.263Z,9.43
2018-11-14T03:30:59.760Z,9.23
2018-11-14T03:33:28.260Z,9.60
2018-11-14T03:36:02.036Z,9.83
2018-11-14T03:38:31.453Z,9.23
2018-11-14T03:41:00.260Z,9.47
2018-11-14T03:43:28.756Z,9.07
2018-11-14T03:45:57.234Z,9.40
2018-11-14T03:48:25.682Z,9.57
2018-11-14T03:50:54.276Z,9.90
2018-11-14T03:53:22.777Z,9.37
2018-11-14T03:55:51.991Z,8.63
2018-11-14T03:58:20.502Z,9.23
2018-11-14T04:00:48.971Z,9.23
2018-11-14T04:03:17.454Z,9.40
2018-11-14T04:05:46.028Z,8.50
2018-11-14T04:08:14.530Z,9.60
2018-11-14T04:10:43.159Z,9.30
2018-11-14T04:13:11.688Z,9.10
2018-11-14T04:15:40.214Z,9.07
2018-11-14T04:18:08.680Z,8.63
2018-11-14T04:20:37.159Z,8.57
2018-11-14T04:23:06.182Z,8.37
2018-11-14T04:25:35.345Z,8.97
2018-11-14T04:28:03.858Z,8.57
2018-11-14T04:30:32.338Z,8.70
2018-11-14T04:33:00.805Z,8.40
2018-11-14T04:35:29.300Z,8.10
2018-11-14T04:37:57.885Z,8.83
2018-11-14T04:40:26.364Z,9.90
2018-11-14T04:42:54.841Z,9.63
2018-11-14T04:45:24.665Z,10.73
2018-11-14T04:47:53.353Z,10.57
2018-11-14T04:50:24.686Z,10.47
2018-11-14T04:52:53.710Z,11.43
2018-11-14T04:55:23.405Z,12.53
2018-11-14T04:57:52.209Z,11.63
2018-11-14T05:00:21.901Z,11.87
2018-11-14T05:02:50.914Z,12.27
2018-11-14T05:05:21.547Z,13.10
2018-11-14T05:07:50.043Z,12.00
2018-11-14T05:10:20.981Z,13.53
2018-11-14T05:12:50.054Z,11.93
2018-11-14T05:15:19.858Z,11.97
2018-11-14T05:17:48.775Z,10.90
2018-11-14T05:20:18.170Z,12.27
2018-11-14T05:22:47.459Z,10.83
2018-11-14T05:25:16.079Z,10.70
2018-11-14T05:27:45.874Z,10.80
2018-11-14T05:30:15.959Z,11.10
2018-11-14T05:32:45.607Z,10.13
2018-11-14T05:35:14.679Z,10.10
2018-11-14T05:37:43.382Z,9.90
2018-11-14T05:40:20.919Z,10.63
2018-11-14T05:42:49.980Z,10.90
2018-11-14T05:45:21.423Z,11.37
2018-11-14T05:47:49.951Z,10.77
2018-11-14T05:50:20.774Z,11.17
2018-11-14T05:52:49.308Z,10.53
2018-11-14T05:55:18.241Z,10.50
2018-11-14T05:57:46.922Z,10.90
2018-11-14T06:00:23.031Z,10.83
2018-11-14T06:02:51.502Z,10.60
2018-11-14T06:05:20.005Z,10.87
2018-11-14T06:07:48.628Z,9.97
2018-11-14T06:10:17.109Z,10.80
2018-11-14T06:12:45.615Z,10.83
2018-11-14T06:15:15.983Z,11.30
2018-11-14T06:17:45.405Z,11.83
2018-11-14T06:20:16.472Z,11.07
2018-11-14T06:22:46.166Z,11.77
2018-11-14T06:25:19.314Z,11.80
2018-11-14T06:27:50.033Z,11.60
2018-11-14T06:30:20.140Z,11.23
2018-11-14T06:32:48.919Z,12.43
2018-11-14T06:35:18.009Z,12.00
2018-11-14T06:37:47.016Z,11.40
2018-11-14T06:40:15.489Z,11.90
2018-11-14T06:42:44.011Z,12.40
2018-11-14T06:45:14.927Z,11.87
2018-11-14T06:47:44.802Z,12.63
2018-11-14T06:50:13.820Z,11.40
2018-11-14T06:52:42.921Z,11.43
2018-11-14T06:55:13.448Z,11.30
2018-11-14T06:57:42.023Z,11.50
2018-11-14T07:00:13.076Z,11.07
2018-11-14T07:02:42.064Z,10.30
2018-11-14T07:05:12.804Z,11.07
2018-11-14T07:07:41.898Z,10.17
2018-11-14T07:10:12.628Z,10.53
2018-11-14T07:12:41.112Z,10.67
2018-11-14T07:15:12.475Z,10.97
2018-11-14T07:17:41.372Z,10.40
2018-11-14T07:20:15.102Z,10.60
2018-11-14T07:22:44.100Z,10.77
2018-11-14T07:25:13.042Z,10.00
2018-11-14T07:27:41.704Z,10.27
2018-11-14T07:30:13.870Z,10.83
2018-11-14T07:32:43.823Z,10.83
2018-11-14T07:35:13.429Z,11.87
2018-11-14T07:37:43.090Z,11.90
2018-11-14T07:40:13.057Z,11.93
2018-11-14T07:42:42.762Z,11.70
2018-11-14T07:45:14.146Z,11.87
2018-11-14T07:47:43.000Z,12.07
2018-11-14T07:50:14.301Z,11.77
2018-11-14T07:52:43.778Z,11.60
2018-11-14T07:55:13.270Z,11.30
2018-11-14T07:57:41.892Z,10.97
2018-11-14T08:00:14.320Z,10.70
2018-11-14T08:02:42.903Z,10.47
2018-11-14T08:05:11.823Z,10.43
2018-11-14T08:07:40.318Z,9.83
2018-11-14T08:10:11.040Z,10.00
2018-11-14T08:12:40.036Z,9.70
2018-11-14T08:15:09.635Z,9.27
2018-11-14T08:17:55.216Z,10.60
2018-11-14T08:20:23.730Z,10.87
2018-11-14T08:22:52.606Z,10.33
2018-11-14T08:25:21.953Z,10.03
2018-11-14T08:27:50.578Z,9.90
2018-11-14T08:30:19.125Z,10.43
2018-11-14T08:32:47.663Z,10.50
2018-11-14T08:35:16.173Z,9.83
2018-11-14T08:37:45.662Z,9.57
2018-11-14T08:40:14.317Z,8.77
2018-11-14T08:42:42.781Z,8.57
2018-11-14T08:45:12.205Z,9.13
2018-11-14T08:47:42.136Z,8.80
2018-11-14T08:50:14.295Z,8.03
2018-11-14T08:52:43.402Z,8.20
2018-11-14T08:55:12.994Z,8.07
2018-11-14T08:57:42.729Z,7.83
2018-11-14T09:00:15.982Z,7.83
2018-11-14T09:02:46.084Z,7.53
2018-11-14T09:05:14.617Z,8.10
2018-11-14T09:07:43.271Z,7.90
2018-11-14T09:10:17.793Z,7.70
2018-11-14T09:12:46.684Z,6.70
2018-11-14T09:15:16.742Z,8.40
2018-11-14T09:17:45.209Z,7.50
2018-11-14T09:20:19.155Z,8.17
2018-11-14T09:22:47.757Z,7.87
2018-11-14T09:25:19.364Z,8.40
2018-11-14T09:27:47.885Z,8.30
2018-11-14T09:30:19.205Z,8.47
2018-11-14T09:32:48.165Z,7.97
2018-11-14T09:35:18.210Z,7.97
2018-11-14T09:37:46.773Z,7.67
2018-11-14T09:40:17.115Z,7.50
2018-11-14T09:42:45.608Z,7.50
2018-11-14T09:45:15.534Z,7.10
2018-11-14T09:47:45.484Z,6.93
2018-11-14T09:50:20.269Z,7.50
2018-11-14T09:52:50.396Z,6.30
2018-11-14T09:55:19.903Z,6.83
2018-11-14T09:57:48.436Z,6.00
2018-11-14T10:00:22.845Z,5.80
2018-11-14T10:02:53.182Z,5.67
2018-11-14T10:05:23.489Z,5.83
2018-11-14T10:07:52.033Z,6.00
2018-11-14T10:10:21.696Z,5.33
2018-11-14T10:12:50.308Z,5.40
2018-11-14T10:15:20.805Z,5.30
2018-11-14T10:17:49.722Z,5.20
2018-11-14T10:20:20.364Z,4.67
2018-11-14T10:22:48.836Z,4.43
2018-11-14T10:25:17.984Z,4.77
2018-11-14T10:27:47.172Z,4.77
2018-11-14T10:30:22.485Z,5.27
2018-11-14T10:32:57.502Z,4.90
2018-11-14T10:35:26.078Z,4.60
2018-11-14T10:37:54.606Z,4.30
2018-11-14T10:40:24.541Z,4.93
2018-11-14T10:42:53.145Z,4.67
2018-11-14T10:45:22.868Z,4.50
2018-11-14T10:47:52.088Z,4.70
2018-11-14T10:50:22.785Z,4.37
2018-11-14T10:52:51.303Z,4.10
2018-11-14T10:55:20.362Z,4.03
2018-11-14T10:57:48.876Z,4.17
2018-11-14T11:00:26.904Z,4.17
2018-11-14T11:03:01.008Z,4.30
2018-11-14T11:05:35.069Z,4.40
2018-11-14T11:08:09.469Z,4.23
2018-11-14T11:10:43.199Z,4.30
2018-11-14T11:13:17.198Z,4.10
2018-11-14T11:15:51.090Z,3.87
2018-11-14T11:18:24.399Z,4.07
2018-11-14T11:20:53.376Z,3.80
2018-11-14T11:23:22.253Z,3.73
2018-11-14T11:25:50.744Z,4.13
2018-11-14T11:28:19.353Z,3.60
2018-11-14T11:30:48.146Z,3.40
2018-11-14T11:33:17.846Z,3.83
2018-11-14T11:35:46.542Z,3.43
2018-11-14T11:38:15.205Z,3.80
2018-11-14T11:40:44.240Z,3.70
2018-11-14T11:43:12.843Z,3.80
2018-11-14T11:45:41.395Z,3.43
2018-11-14T11:48:09.881Z,3.83
2018-11-14T11:50:38.435Z,3.50
2018-11-14T11:53:07.606Z,4.00
2018-11-14T11:55:36.437Z,3.70
2018-11-14T11:58:05.926Z,3.30
2018-11-14T12:00:35.208Z,3.60
2018-11-14T12:03:03.585Z,3.20
2018-11-14T12:05:32.118Z,3.63
2018-11-14T12:08:00.696Z,3.67
2018-11-14T12:10:29.245Z,3.53
2018-11-14T12:12:57.734Z,3.70
2018-11-14T12:15:26.241Z,3.40
2018-11-14T12:17:55.668Z,3.50
2018-11-14T12:20:25.643Z,3.27
2018-11-14T12:22:54.367Z,3.47
2018-11-14T12:25:23.863Z,3.37
2018-11-14T12:27:52.527Z,3.50
2018-11-14T12:30:21.183Z,3.40
2018-11-14T12:32:49.645Z,3.43
2018-11-14T12:35:18.193Z,3.73
2018-11-14T12:37:46.677Z,3.50
2018-11-14T12:40:16.272Z,2.77
2018-11-14T12:42:44.835Z,3.87
2018-11-14T12:45:14.818Z,3.13
2018-11-14T12:47:43.331Z,3.80
2018-11-14T12:50:12.961Z,3.30
2018-11-14T12:52:41.888Z,3.63
2018-11-14T12:55:12.994Z,3.70
2018-11-14T12:57:41.535Z,3.60
2018-11-14T13:00:12.297Z,3.73
2018-11-14T13:02:42.476Z,3.63
2018-11-14T13:05:14.258Z,3.40
2018-11-14T13:07:45.592Z,3.00
2018-11-14T13:10:19.282Z,3.00
2018-11-14T13:12:48.992Z,2.70
2018-11-14T13:15:18.470Z,2.73
2018-11-14T13:17:49.222Z,2.73
2018-11-14T13:20:22.598Z,3.07
2018-11-14T13:22:54.865Z,3.30
2018-11-14T13:25:26.190Z,3.07
2018-11-14T13:27:55.332Z,3.23
2018-11-14T13:30:30.349Z,3.10
2018-11-14T13:32:58.860Z,2.87
2018-11-14T13:35:28.438Z,3.00
2018-11-14T13:37:56.934Z,2.40
2018-11-14T13:40:25.445Z,2.87
2018-11-14T13:42:54.019Z,3.07
2018-11-14T13:45:22.583Z,3.10
2018-11-14T13:47:51.143Z,2.83
2018-11-14T13:50:21.634Z,3.20
2018-11-14T13:52:51.201Z,2.90
2018-11-14T13:55:20.798Z,3.30
2018-11-14T13:57:50.714Z,2.93
2018-11-14T14:00:21.123Z,3.00
2018-11-14T14:02:50.637Z,3.03
2018-11-14T14:05:20.382Z,3.00
2018-11-14T14:07:48.950Z,2.97
2018-11-14T14:10:17.823Z,3.20
2018-11-14T14:12:47.697Z,3.07
2018-11-14T14:15:18.668Z,3.93
2018-11-14T14:17:48.108Z,3.10
2018-11-14T14:20:17.392Z,3.40
2018-11-14T14:22:46.030Z,3.30
2018-11-14T14:25:17.124Z,2.90
2018-11-14T14:27:46.744Z,3.30
2018-11-14T14:30:16.760Z,3.00
2018-11-14T14:32:45.946Z,3.63
2018-11-14T14:35:15.445Z,3.63
2018-11-14T14:37:43.972Z,3.57
2018-11-14T14:40:14.650Z,3.40
2018-11-14T14:42:43.415Z,3.20
2018-11-14T14:45:13.288Z,3.43
2018-11-14T14:47:41.836Z,3.33
2018-11-14T14:50:12.427Z,3.47
2018-11-14T14:52:41.649Z,3.53
2018-11-14T14:55:13.797Z,3.43
2018-11-14T14:57:42.979Z,3.37
2018-11-14T15:00:14.766Z,3.30
2018-11-14T15:02:43.819Z,3.40
2018-11-14T15:05:13.230Z,3.97
2018-11-14T15:07:42.435Z,4.13
2018-11-14T15:10:14.991Z,4.37
2018-11-14T15:12:43.563Z,4.60
2018-11-14T15:15:12.836Z,4.57
2018-11-14T15:17:41.604Z,4.60
2018-11-14T15:20:15.230Z,4.63
2018-11-14T15:22:43.927Z,4.80
2018-11-14T15:25:14.885Z,5.33
2018-11-14T15:27:44.098Z,5.63
2018-11-14T15:30:17.366Z,4.97
2018-11-14T15:32:46.212Z,4.73
2018-11-14T15:35:14.848Z,4.93
2018-11-14T15:37:44.349Z,5.50
2018-11-14T15:40:14.090Z,5.60
2018-11-14T15:42:42.729Z,5.73
2018-11-14T15:45:15.966Z,5.67
2018-11-14T15:47:45.750Z,6.20
2018-11-14T15:50:18.087Z,5.50
2018-11-14T15:52:48.054Z,6.90
2018-11-14T15:55:17.781Z,6.93
2018-11-14T15:57:46.361Z,6.50
2018-11-14T16:00:17.179Z,6.53
2018-11-14T16:02:45.668Z,6.33
2018-11-14T16:05:16.699Z,5.70
2018-11-14T16:07:46.306Z,6.40
2018-11-14T16:10:16.521Z,7.20
2018-11-14T16:12:45.335Z,6.30
2018-11-14T16:15:16.173Z,6.80
2018-11-14T16:17:44.684Z,9.83
2018-11-14T16:20:15.183Z,7.50
2018-11-14T16:22:43.689Z,6.90
2018-11-14T16:25:15.428Z,6.83
2018-11-14T16:27:44.931Z,7.07
2018-11-14T16:30:15.839Z,7.03
2018-11-14T16:32:45.596Z,7.10
2018-11-14T16:35:14.364Z,6.60
2018-11-14T16:37:43.256Z,7.53
2018-11-14T16:40:19.693Z,7.97
2018-11-14T16:42:48.659Z,7.43
2018-11-14T16:45:17.208Z,7.70
2018-11-14T16:47:45.958Z,7.70
2018-11-14T16:50:16.542Z,7.87
2018-11-14T16:52:45.106Z,7.50
2018-11-14T16:55:15.698Z,8.73
2018-11-14T16:57:45.378Z,8.17
2018-11-14T17:00:18.904Z,8.07
2018-11-14T17:02:47.522Z,8.30
2018-11-14T17:05:16.538Z,8.20
2018-11-14T17:07:45.974Z,7.63
2018-11-14T17:10:15.527Z,9.00
2018-11-14T17:12:44.947Z,8.30
2018-11-14T17:15:14.873Z,8.00
2018-11-14T17:17:43.390Z,8.17
2018-11-14T17:20:13.164Z,7.83
2018-11-14T17:22:43.116Z,8.93
2018-11-14T17:25:14.228Z,8.63
2018-11-14T17:27:43.397Z,8.63
2018-11-14T17:30:15.357Z,8.93
2018-11-14T17:32:46.408Z,9.00
2018-11-14T17:35:16.429Z,9.03
2018-11-14T17:37:46.880Z,8.63
2018-11-14T17:40:18.889Z,9.13
2018-11-14T17:42:48.394Z,9.30
2018-11-14T17:45:19.266Z,9.73
2018-11-14T17:47:48.597Z,9.10
2018-11-14T17:50:19.283Z,9.17
2018-11-14T17:52:48.731Z,9.10
2018-11-14T17:55:18.055Z,9.53
2018-11-14T17:57:46.605Z,8.90
2018-11-14T18:00:17.482Z,8.80
2018-11-14T18:02:46.273Z,8.70
2018-11-14T18:05:16.163Z,9.40
2018-11-14T18:07:46.218Z,9.50
2018-11-14T18:10:19.250Z,8.87
2018-11-14T18:12:49.485Z,9.23
2018-11-14T18:15:19.069Z,9.93
2018-11-14T18:17:48.903Z,9.27
2018-11-14T18:20:19.437Z,9.13
2018-11-14T18:22:48.712Z,10.07
2018-11-14T18:25:17.287Z,10.07
2018-11-14T18:27:46.551Z,9.97
2018-11-14T18:30:18.041Z,9.73
2018-11-14T18:32:46.483Z,9.03
2018-11-14T18:35:16.768Z,9.43
2018-11-14T18:37:46.006Z,8.90
2018-11-14T18:40:16.908Z,8.63
2018-11-14T18:42:49.413Z,9.87
2018-11-14T18:45:25.085Z,10.30
2018-11-14T18:47:54.331Z,9.57
2018-11-14T18:50:23.753Z,9.40
2018-11-14T18:52:52.734Z,8.50
2018-11-14T18:55:23.950Z,8.70
2018-11-14T18:57:52.862Z,8.63
2018-11-14T19:00:23.486Z,9.03
2018-11-14T19:02:57.648Z,9.80
2018-11-14T19:05:26.189Z,8.53
2018-11-14T19:07:55.073Z,8.93
2018-11-14T19:10:25.978Z,8.80
2018-11-14T19:12:54.908Z,8.87
2018-11-14T19:15:25.390Z,8.93
2018-11-14T19:17:54.191Z,9.70
2018-11-14T19:20:25.658Z,9.23
2018-11-14T19:22:54.999Z,9.17
2018-11-14T19:25:25.841Z,9.13
2018-11-14T19:27:54.319Z,8.90
2018-11-14T19:30:24.998Z,9.50
2018-11-14T19:32:54.950Z,11.67
2018-11-14T19:35:23.506Z,11.27
2018-11-14T19:37:52.841Z,10.73
2018-11-14T19:40:22.685Z,10.27
2018-11-14T19:42:54.575Z,9.90
2018-11-14T19:45:24.966Z,8.90
2018-11-14T19:47:54.053Z,8.83
2018-11-14T19:50:23.160Z,9.03
2018-11-14T19:52:52.127Z,10.43
2018-11-14T19:55:22.089Z,9.37
2018-11-14T19:57:51.847Z,8.33
2018-11-14T20:00:23.670Z,9.10
2018-11-14T20:02:52.204Z,8.70
2018-11-14T20:05:21.309Z,9.83
2018-11-14T20:07:50.310Z,9.23
2018-11-14T20:10:20.259Z,9.10
2018-11-14T20:12:50.040Z,9.50
2018-11-14T20:15:21.176Z,9.93
2018-11-14T20:17:50.210Z,9.40
2018-11-14T20:20:22.022Z,9.37
2018-11-14T20:22:50.544Z,10.57
2018-11-14T20:25:19.078Z,11.57
2018-11-14T20:27:48.658Z,10.60
2018-11-14T20:30:22.571Z,10.73
2018-11-14T20:32:53.051Z,10.53
2018-11-14T20:35:22.464Z,11.20
2018-11-14T20:37:51.952Z,10.20
2018-11-14T20:40:21.474Z,10.77
2018-11-14T20:42:54.272Z,10.40
2018-11-14T20:45:24.959Z,10.40
2018-11-14T20:47:53.580Z,10.43
2018-11-14T20:50:23.371Z,10.23
2018-11-14T20:52:54.505Z,11.07
2018-11-14T20:55:23.081Z,11.57
2018-11-14T20:57:52.516Z,11.60
2018-11-14T21:00:26.383Z,10.73
2018-11-14T21:02:56.380Z,10.20
2018-11-14T21:05:25.587Z,11.27
2018-11-14T21:07:54.437Z,11.00
2018-11-14T21:10:25.652Z,13.13
2018-11-14T21:12:54.666Z,11.87
2018-11-14T21:15:24.786Z,10.83
2018-11-14T21:17:57.806Z,11.20
2018-11-14T21:20:27.597Z,10.40
2018-11-14T21:22:58.386Z,9.97
2018-11-14T21:25:28.008Z,10.20
2018-11-14T21:27:57.399Z,9.83
2018-11-14T21:30:27.290Z,9.93
2018-11-14T21:32:56.727Z,10.77
2018-11-14T21:35:32.109Z,9.93
2018-11-14T21:38:04.517Z,10.20
2018-11-14T21:40:34.123Z,10.60
2018-11-14T21:43:04.406Z,10.20
2018-11-14T21:45:33.593Z,10.23
2018-11-14T21:48:07.429Z,10.20
2018-11-14T21:50:35.920Z,10.13
2018-11-14T21:53:08.087Z,9.63
2018-11-14T21:55:37.157Z,9.70
2018-11-14T21:58:07.033Z,10.80
2018-11-14T22:00:42.283Z,10.33
2018-11-14T22:03:11.489Z,10.20
2018-11-14T22:05:41.191Z,10.53
2018-11-14T22:08:10.033Z,10.53
2018-11-14T22:10:41.831Z,10.10
2018-11-14T22:13:12.747Z,10.03
2018-11-14T22:15:43.423Z,10.27
2018-11-14T22:18:12.635Z,9.77
2018-11-14T22:20:41.117Z,11.13
2018-11-14T22:23:09.627Z,9.97
2018-11-14T22:25:44.247Z,11.23
2018-11-14T22:28:13.261Z,10.10
2018-11-14T22:30:41.904Z,9.87
2018-11-14T22:33:10.452Z,10.30
2018-11-14T22:35:40.296Z,9.80
2018-11-14T22:38:09.106Z,9.90
2018-11-14T22:40:39.092Z,9.90
2018-11-14T22:43:07.593Z,10.33
2018-11-14T22:45:40.114Z,10.20
2018-11-14T22:48:08.648Z,10.37
2018-11-14T22:50:37.138Z,10.67
2018-11-14T22:53:06.619Z,9.70
2018-11-14T22:55:35.462Z,10.17
2018-11-14T22:58:03.978Z,10.47
2018-11-14T23:00:39.030Z,9.53
2018-11-14T23:03:07.614Z,10.37
2018-11-14T23:05:36.103Z,10.10
2018-11-14T23:08:06.676Z,10.40
2018-11-14T23:10:35.739Z,10.30
2018-11-14T23:13:04.938Z,9.80
2018-11-14T23:15:33.570Z,9.90
2018-11-14T23:18:02.108Z,9.60
2018-11-14T23:20:33.552Z,10.27
2018-11-14T23:23:03.668Z,11.10
2018-11-14T23:25:32.448Z,11.40
2018-11-14T23:28:02.170Z,11.13
2018-11-14T23:30:30.705Z,10.43
2018-11-14T23:33:01.786Z,10.77
2018-11-14T23:35:33.362Z,10.53
2018-11-14T23:38:04.808Z,10.40
2018-11-14T23:40:33.758Z,10.70
2018-11-14T23:43:02.833Z,11.00
2018-11-14T23:45:32.107Z,10.20
2018-11-14T23:48:02.101Z,9.30
2018-11-14T23:50:31.930Z,9.97
2018-11-14T23:53:03.389Z,9.73
2018-11-14T23:55:32.467Z,9.97
2018-11-14T23:58:02.066Z,9.83
